Time;durP1;ratioP1;P1;durP2;ratioP2;P2;SDS_P1;SDS_P2;PMS_P1;PMS_P2;Temp;Humidity;BMP_temperature;BMP_pressure;BME280_temperature;BME280_humidity;BME280_pressure;Samples;Min_cycle;Max_cycle;Signal;HPM_P1;HPM_P2
2022/04/28 00:02:22;;;;;;;10.75;7.72;;;;;;;;;;4693925;30;20058;-88
2022/04/28 00:04:59;;;;;;;13.73;7.75;;;;;;;;;;4695091;30;20061;-87
2022/04/28 00:07:34;;;;;;;8.77;7.32;;;;;;;;;;4711917;30;20053;-87
2022/04/28 00:10:05;;;;;;;12.60;8.50;;;;;;;;;;4711773;30;20049;-87
2022/04/28 00:12:40;;;;;;;12.00;9.05;;;;;;;;;;4697503;30;20397;-88
2022/04/28 00:15:09;;;;;;;8.65;7.65;;;;;;;;;;4711040;30;20053;-87
2022/04/28 00:17:39;;;;;;;14.53;7.30;;;;;;;;;;4711969;30;20405;-87
2022/04/28 00:20:16;;;;;;;7.75;6.15;;;;;;;;;;4696993;30;20061;-87
2022/04/28 00:22:47;;;;;;;7.35;6.45;;;;;;;;;;4696437;30;20053;-87
2022/04/28 00:25:22;;;;;;;14.02;7.35;;;;;;;;;;4697720;30;20377;-87
2022/04/28 00:27:54;;;;;;;6.65;5.97;;;;;;;;;;4695955;30;20065;-89
2022/04/28 00:30:27;;;;;;;10.70;8.88;;;;;;;;;;4696080;30;20052;-81
2022/04/28 00:32:55;;;;;;;8.43;6.68;;;;;;;;;;4712247;30;20056;-82
2022/04/28 00:35:24;;;;;;;7.68;6.88;;;;;;;;;;4712222;30;20064;-81
2022/04/28 00:37:52;;;;;;;9.05;7.30;;;;;;;;;;4694799;30;20053;-82
2022/04/28 00:40:20;;;;;;;8.65;5.97;;;;;;;;;;4693656;30;20057;-81
2022/04/28 00:42:47;;;;;;;11.93;8.00;;;;;;;;;;4677088;30;20061;-81
2022/04/28 00:45:15;;;;;;;8.80;6.78;;;;;;;;;;4728420;30;20423;-81
2022/04/28 00:50:40;;;;;;;8.02;6.03;;;;;;;;;;4723550;30;20048;-81
2022/04/28 00:53:10;;;;;;;10.05;6.97;;;;;;;;;;4711399;30;20053;-81
2022/04/28 00:55:38;;;;;;;9.18;6.63;;;;;;;;;;4681508;30;20068;-81
2022/04/28 00:58:07;;;;;;;8.88;7.60;;;;;;;;;;4681525;30;20049;-81
2022/04/28 01:00:35;;;;;;;19.15;7.53;;;;;;;;;;4681903;30;20061;-81
2022/04/28 01:03:03;;;;;;;11.88;8.85;;;;;;;;;;4711342;30;20053;-81
2022/04/28 01:05:32;;;;;;;8.10;6.72;;;;;;;;;;4695476;30;20045;-81
2022/04/28 01:08:00;;;;;;;10.63;8.70;;;;;;;;;;4709881;30;20492;-81
2022/04/28 01:10:44;;;;;;;10.30;7.53;;;;;;;;;;4711660;30;20049;-82
2022/04/28 01:14:01;;;;;;;8.65;6.30;;;;;;;;;;4711456;30;20048;-81
2022/04/28 01:17:05;;;;;;;9.40;7.35;;;;;;;;;;4710347;30;20049;-81
2022/04/28 01:20:10;;;;;;;12.98;8.15;;;;;;;;;;4695170;30;20064;-82
2022/04/28 01:22:49;;;;;;;7.68;5.65;;;;;;;;;;4695385;30;20526;-82
2022/04/28 01:25:28;;;;;;;14.55;7.88;;;;;;;;;;4712096;30;20060;-81
2022/04/28 01:28:22;;;;;;;13.85;9.05;;;;;;;;;;4710331;30;20060;-82
2022/04/28 01:31:34;;;;;;;13.98;9.35;;;;;;;;;;4710131;30;20053;-82
2022/04/28 01:34:10;;;;;;;9.93;7.55;;;;;;;;;;4709332;30;20052;-82
2022/04/28 01:36:38;;;;;;;9.30;7.57;;;;;;;;;;4711139;30;20068;-81
2022/04/28 01:39:07;;;;;;;15.18;8.90;;;;;;;;;;4709559;30;20049;-82
2022/04/28 01:41:36;;;;;;;11.57;9.27;;;;;;;;;;4695603;30;20077;-82
2022/04/28 01:44:18;;;;;;;13.50;8.98;;;;;;;;;;4711211;30;20069;-88
2022/04/28 01:46:49;;;;;;;15.05;9.88;;;;;;;;;;4727107;30;20053;-87
2022/04/28 01:49:52;;;;;;;10.45;9.07;;;;;;;;;;4674041;30;20072;-88
2022/04/28 01:55:41;;;;;;;9.20;8.05;;;;;;;;;;4710608;30;20496;-88
2022/04/28 01:58:30;;;;;;;12.25;10.30;;;;;;;;;;4700476;30;20048;-88
2022/04/28 02:01:22;;;;;;;14.02;9.45;;;;;;;;;;4701636;30;20057;-88
2022/04/28 02:04:01;;;;;;;10.77;8.52;;;;;;;;;;4727134;30;20063;-89
2022/04/28 02:06:48;;;;;;;12.85;9.80;;;;;;;;;;4705568;30;20049;-88
2022/04/28 02:09:19;;;;;;;12.25;9.45;;;;;;;;;;4681423;30;20495;-88
2022/04/28 02:12:07;;;;;;;15.52;11.35;;;;;;;;;;4667304;30;20391;-89
2022/04/28 02:15:09;;;;;;;12.65;9.27;;;;;;;;;;4692662;30;20048;-88
2022/04/28 02:18:08;;;;;;;10.77;8.50;;;;;;;;;;4688102;30;20055;-89
2022/04/28 02:20:41;;;;;;;9.57;7.47;;;;;;;;;;4716615;30;20067;-89
2022/04/28 02:23:21;;;;;;;25.75;7.47;;;;;;;;;;4715573;30;20056;-88
2022/04/28 02:25:55;;;;;;;9.23;6.32;;;;;;;;;;4710677;30;20049;-89
2022/04/28 02:28:36;;;;;;;10.50;7.55;;;;;;;;;;4693650;30;20061;-87
2022/04/28 02:31:07;;;;;;;9.75;6.57;;;;;;;;;;4691374;30;20206;-88
2022/04/28 02:34:00;;;;;;;12.40;8.65;;;;;;;;;;4681324;30;20053;-89
2022/04/28 02:37:30;;;;;;;10.10;7.85;;;;;;;;;;4692939;30;20057;-88
2022/04/28 02:45:32;;;;;;;16.48;8.38;;;;;;;;;;4669342;30;20049;-88
2022/04/28 02:49:22;;;;;;;;;;;;;;;;;;;;;
2022/04/28 02:52:27;;;;;;;16.25;11.35;;;;;;;;;;4653482;30;20049;-89
2022/04/28 02:55:16;;;;;;;13.20;11.30;;;;;;;;;;4666324;30;20053;-89
2022/04/28 02:58:21;;;;;;;18.85;11.50;;;;;;;;;;4655616;30;20060;-89
2022/04/28 03:01:23;;;;;;;16.98;11.05;;;;;;;;;;4688495;30;20064;-88
2022/04/28 03:04:25;;;;;;;13.93;8.85;;;;;;;;;;4668986;30;20063;-88
2022/04/28 03:20:37;;;;;;;16.85;12.02;;;;;;;;;;4629017;30;20062;-88
2022/04/28 03:24:51;;;;;;;16.23;10.48;;;;;;;;;;4700937;30;20068;-88
2022/04/28 03:28:53;;;;;;;18.45;10.40;;;;;;;;;;4662504;30;20060;-88
2022/04/28 03:32:53;;;;;;;13.70;9.32;;;;;;;;;;4687460;30;20049;-88
2022/04/28 03:37:08;;;;;;;;;;;;;;;;;;;;;
2022/04/28 03:40:51;;;;;;;;;;;;;;;;;;;;;
2022/04/28 03:52:16;;;;;;;106.28;20.17;;;;;;;;;;4632642;30;20560;-88
2022/04/28 03:55:50;;;;;;;36.88;12.00;;;;;;;;;;4620520;30;20050;-88
2022/04/28 03:59:29;;;;;;;16.77;10.48;;;;;;;;;;4603586;30;20064;-87
2022/04/28 04:02:53;;;;;;;16.55;11.25;;;;;;;;;;4587012;31;20061;-88
2022/04/28 04:06:29;;;;;;;15.45;10.18;;;;;;;;;;4586886;31;20052;-88
2022/04/28 04:09:52;;;;;;;15.80;10.15;;;;;;;;;;4562117;31;20052;-88
2022/04/28 04:13:11;;;;;;;115.03;20.35;;;;;;;;;;4581402;31;20096;-88
2022/04/28 04:16:15;;;;;;;24.33;9.73;;;;;;;;;;4588468;31;20772;-88
2022/04/28 04:18:57;;;;;;;15.73;8.40;;;;;;;;;;4609925;30;20074;-88
2022/04/28 04:21:46;;;;;;;14.00;9.15;;;;;;;;;;4616185;30;20074;-89
2022/04/28 04:24:44;;;;;;;18.80;11.65;;;;;;;;;;4625224;30;20078;-87
2022/04/28 04:27:37;;;;;;;;;;;;;;;;;;;;;
2022/04/28 04:37:16;;;;;;;16.98;12.32;;;;;;;;;;4691900;30;20077;-88
2022/04/28 04:40:04;;;;;;;15.13;11.05;;;;;;;;;;4694135;30;20110;-88
2022/04/28 04:43:27;;;;;;;17.08;10.43;;;;;;;;;;4666368;30;20073;-88
2022/04/28 04:47:10;;;;;;;19.48;11.20;;;;;;;;;;4717183;30;20060;-88
2022/04/28 04:50:47;;;;;;;11.65;9.48;;;;;;;;;;4657919;30;20410;-88
2022/04/28 04:53:57;;;;;;;31.23;12.30;;;;;;;;;;4670405;30;20093;-89
2022/04/28 04:57:42;;;;;;;23.60;9.05;;;;;;;;;;4657136;30;20069;-87
2022/04/28 05:00:55;;;;;;;22.25;9.75;;;;;;;;;;4666270;30;20068;-88
2022/04/28 05:13:33;;;;;;;13.52;9.32;;;;;;;;;;4627213;30;20059;-89
2022/04/28 05:16:47;;;;;;;16.73;11.50;;;;;;;;;;4676972;30;20112;-89
2022/04/28 05:20:16;;;;;;;13.70;10.65;;;;;;;;;;4679384;30;20061;-89
2022/04/28 05:23:21;;;;;;;13.35;10.70;;;;;;;;;;4685221;30;20061;-89
2022/04/28 05:26:08;;;;;;;16.88;14.13;;;;;;;;;;4693886;30;20405;-89
2022/04/28 05:28:54;;;;;;;12.45;9.35;;;;;;;;;;4678785;30;20428;-87
2022/04/28 05:31:53;;;;;;;10.75;9.70;;;;;;;;;;4677809;30;20057;-87
2022/04/28 05:34:54;;;;;;;16.45;9.30;;;;;;;;;;4679942;30;20069;-87
2022/04/28 05:37:25;;;;;;;21.13;11.13;;;;;;;;;;4679817;30;20062;-87
2022/04/28 05:39:53;;;;;;;14.15;10.25;;;;;;;;;;4679225;30;20100;-87
2022/04/28 05:45:41;;;;;;;10.48;8.25;;;;;;;;;;4685046;30;20059;-86
2022/04/28 05:47:58;;;;;;;8.90;8.07;;;;;;;;;;4684452;30;20053;-86
2022/04/28 05:50:41;;;;;;;12.68;9.23;;;;;;;;;;4664362;30;20053;-87
2022/04/28 05:53:27;;;;;;;9.73;8.50;;;;;;;;;;4676629;30;20068;-87
2022/04/28 05:56:15;;;;;;;11.60;10.15;;;;;;;;;;4663168;30;20511;-86
2022/04/28 06:01:20;;;;;;;;;;;;;;;;;;;;;
2022/04/28 06:10:49;;;;;;;9.98;7.10;;;;;;;;;;4537152;31;20060;-87
2022/04/28 06:14:40;;;;;;;13.18;8.70;;;;;;;;;;4528627;31;20077;-87
2022/04/28 06:19:04;;;;;;;9.52;7.55;;;;;;;;;;4596456;30;20058;-86
2022/04/28 06:23:05;;;;;;;;;;;;;;;;;;;;;
2022/04/28 06:27:31;;;;;;;;;;;;;;;;;;;;;
2022/04/28 06:31:05;;;;;;;9.52;7.75;;;;;;;;;;4562114;31;20446;-87
2022/04/28 06:34:47;;;;;;;;;;;;;;;;;;;;;
2022/04/28 06:39:22;;;;;;;7.17;6.57;;;;;;;;;;4612085;30;20073;-88
2022/04/28 06:47:07;;;;;;;;;;;;;;;;;;;;;
2022/04/28 06:51:08;;;;;;;;;;;;;;;;;;;;;
2022/04/28 06:55:06;;;;;;;8.85;7.13;;;;;;;;;;4614094;30;20518;-89
2022/04/28 06:57:52;;;;;;;;;;;;;;;;;;;;;
2022/04/28 07:00:55;;;;;;;7.65;6.40;;;;;;;;;;4688102;30;20078;-88
2022/04/28 07:04:09;;;;;;;9.82;6.47;;;;;;;;;;4699378;30;20074;-89
2022/04/28 07:11:48;;;;;;;7.60;6.40;;;;;;;;;;4700241;30;20067;-86
2022/04/28 07:14:39;;;;;;;7.03;6.32;;;;;;;;;;4696066;30;20048;-86
2022/04/28 07:18:12;;;;;;;7.45;6.15;;;;;;;;;;4656985;30;20064;-88
2022/04/28 07:20:55;;;;;;;9.65;6.47;;;;;;;;;;4698242;30;20077;-87
2022/04/28 07:28:17;;;;;;;;;;;;;;;;;;;;;
2022/04/28 07:31:57;;;;;;;7.18;6.07;;;;;;;;;;4706504;30;20045;-88
2022/04/28 07:36:16;;;;;;;6.80;6.05;;;;;;;;;;4687001;30;20056;-87
2022/04/28 07:39:49;;;;;;;6.18;5.47;;;;;;;;;;4673101;30;20053;-84
2022/04/28 07:42:40;;;;;;;8.68;7.88;;;;;;;;;;4707267;30;20060;-85
2022/04/28 07:45:08;;;;;;;6.95;5.57;;;;;;;;;;4711066;30;20229;-83
2022/04/28 07:47:38;;;;;;;9.50;5.70;;;;;;;;;;4709393;30;20748;-84
2022/04/28 07:50:13;;;;;;;6.05;5.43;;;;;;;;;;4710145;30;20045;-86
2022/04/28 07:52:43;;;;;;;5.68;5.10;;;;;;;;;;4709657;30;20538;-86
2022/04/28 07:55:19;;;;;;;5.43;4.68;;;;;;;;;;4695086;30;20084;-83
2022/04/28 07:57:56;;;;;;;6.50;5.90;;;;;;;;;;4695696;30;20068;-82
2022/04/28 08:00:35;;;;;;;13.30;5.82;;;;;;;;;;4679039;30;20057;-79
2022/04/28 08:03:11;;;;;;;7.28;5.53;;;;;;;;;;4691900;30;20765;-84
2022/04/28 08:05:55;;;;;;;6.38;5.65;;;;;;;;;;4664866;30;20095;-86
2022/04/28 08:08:24;;;;;;;6.20;5.60;;;;;;;;;;4703480;30;20072;-85
2022/04/28 08:10:53;;;;;;;8.10;4.13;;;;;;;;;;4711225;30;20060;-83
2022/04/28 08:13:22;;;;;;;9.35;5.38;;;;;;;;;;4711549;30;20060;-88
2022/04/28 08:16:46;;;;;;;7.22;4.80;;;;;;;;;;4684300;30;20070;-82
2022/04/28 08:19:14;;;;;;;5.93;5.32;;;;;;;;;;4710521;30;20688;-83
2022/04/28 08:21:45;;;;;;;5.82;5.32;;;;;;;;;;4711288;30;20063;-84
2022/04/28 08:24:16;;;;;;;7.50;4.57;;;;;;;;;;4711469;30;20060;-84
2022/04/28 08:26:46;;;;;;;6.85;6.15;;;;;;;;;;4682086;30;20060;-85
2022/04/28 08:29:14;;;;;;;5.85;4.38;;;;;;;;;;4696751;30;20057;-83
2022/04/28 08:31:56;;;;;;;6.30;4.90;;;;;;;;;;4718706;30;20057;-84
2022/04/28 08:34:30;;;;;;;5.60;4.13;;;;;;;;;;4698915;30;20056;-81
2022/04/28 08:36:58;;;;;;;5.35;4.65;;;;;;;;;;4714298;30;20064;-86
2022/04/28 08:39:31;;;;;;;5.88;4.45;;;;;;;;;;4699266;30;20056;-83
2022/04/28 08:42:02;;;;;;;4.32;3.92;;;;;;;;;;4699002;30;20064;-82
2022/04/28 08:44:58;;;;;;;5.40;4.18;;;;;;;;;;4729652;30;20056;-83
2022/04/28 08:47:47;;;;;;;7.35;4.72;;;;;;;;;;4704910;30;20061;-82
2022/04/28 08:50:37;;;;;;;4.18;3.88;;;;;;;;;;4711794;30;20052;-82
2022/04/28 08:53:14;;;;;;;7.18;4.82;;;;;;;;;;4713398;30;20060;-83
2022/04/28 08:55:43;;;;;;;4.78;3.70;;;;;;;;;;4714038;30;20057;-82
2022/04/28 08:58:13;;;;;;;4.70;4.30;;;;;;;;;;4698368;30;20064;-83
2022/04/28 09:00:52;;;;;;;6.10;4.50;;;;;;;;;;4702036;30;20056;-82
2022/04/28 09:03:43;;;;;;;4.72;3.65;;;;;;;;;;4675345;30;20804;-83
2022/04/28 09:06:52;;;;;;;5.80;4.53;;;;;;;;;;4724138;30;20063;-85
2022/04/28 09:09:47;;;;;;;4.30;3.95;;;;;;;;;;4721251;30;20052;-82
2022/04/28 09:12:34;;;;;;;5.50;4.10;;;;;;;;;;4730322;30;20053;-86
2022/04/28 09:15:29;;;;;;;3.45;3.10;;;;;;;;;;4710522;30;20059;-81
2022/04/28 09:18:11;;;;;;;6.95;3.70;;;;;;;;;;4712750;30;20044;-81
2022/04/28 09:20:39;;;;;;;6.38;4.10;;;;;;;;;;4698947;30;20083;-82
2022/04/28 09:23:14;;;;;;;4.97;4.28;;;;;;;;;;4713156;30;20066;-83
2022/04/28 09:26:19;;;;;;;5.05;3.75;;;;;;;;;;4726309;30;20055;-86
2022/04/28 09:29:11;;;;;;;5.18;3.53;;;;;;;;;;4711960;30;20075;-87
2022/04/28 09:31:51;;;;;;;5.13;4.37;;;;;;;;;;4714845;30;20055;-86
2022/04/28 09:35:15;;;;;;;8.20;5.78;;;;;;;;;;4710900;30;20049;-87
2022/04/28 09:38:36;;;;;;;3.78;3.47;;;;;;;;;;4636601;30;20394;-88
2022/04/28 09:44:13;;;;;;;5.03;4.22;;;;;;;;;;4641813;30;20391;-84
2022/04/28 09:46:56;;;;;;;5.90;5.38;;;;;;;;;;4652147;30;20552;-85
2022/04/28 09:49:35;;;;;;;6.65;4.90;;;;;;;;;;4684596;30;20072;-85
2022/04/28 09:52:14;;;;;;;5.60;5.03;;;;;;;;;;4726207;30;20059;-87
2022/04/28 09:55:29;;;;;;;6.32;4.30;;;;;;;;;;4711394;30;20688;-83
2022/04/28 09:58:38;;;;;;;4.43;3.58;;;;;;;;;;4701741;30;20056;-86
2022/04/28 10:01:12;;;;;;;6.25;4.60;;;;;;;;;;4707694;30;20055;-84
2022/04/28 10:03:42;;;;;;;9.82;4.20;;;;;;;;;;4697850;30;20049;-87
2022/04/28 10:06:16;;;;;;;6.88;3.97;;;;;;;;;;4711483;30;20056;-81
2022/04/28 10:08:47;;;;;;;6.60;4.60;;;;;;;;;;4698732;30;20064;-85
2022/04/28 10:11:27;;;;;;;6.85;4.80;;;;;;;;;;4698090;30;20507;-87
2022/04/28 10:14:02;;;;;;;6.28;3.92;;;;;;;;;;4705293;30;20052;-83
2022/04/28 10:16:31;;;;;;;6.68;3.65;;;;;;;;;;4726752;30;20052;-88
2022/04/28 10:19:06;;;;;;;6.60;4.20;;;;;;;;;;4695045;30;20050;-87
2022/04/28 10:21:54;;;;;;;4.40;3.78;;;;;;;;;;4692980;30;20146;-85
2022/04/28 10:33:52;;;;;;;4.13;3.72;;;;;;;;;;4727353;30;20053;-78
2022/04/28 10:36:25;;;;;;;6.75;5.07;;;;;;;;;;4727270;30;20049;-78
2022/04/28 10:39:09;;;;;;;3.05;2.78;;;;;;;;;;4725411;30;20060;-82
2022/04/28 10:41:37;;;;;;;3.97;2.70;;;;;;;;;;4712204;30;20060;-77
2022/04/28 10:44:16;;;;;;;4.53;3.75;;;;;;;;;;4724712;30;20056;-79
2022/04/28 10:47:02;;;;;;;6.70;4.55;;;;;;;;;;4706947;30;20053;-78
2022/04/28 10:49:39;;;;;;;4.93;3.85;;;;;;;;;;4710482;30;20064;-79
2022/04/28 10:52:23;;;;;;;3.47;3.05;;;;;;;;;;4710025;30;20064;-78
2022/04/28 10:54:59;;;;;;;25.25;4.78;;;;;;;;;;4710977;30;20420;-84
2022/04/28 10:57:31;;;;;;;5.25;3.25;;;;;;;;;;4687938;30;20053;-87
2022/04/28 11:00:03;;;;;;;7.32;5.20;;;;;;;;;;4683227;30;20389;-84
2022/04/28 11:02:36;;;;;;;4.43;4.05;;;;;;;;;;4710055;30;20598;-79
2022/04/28 11:05:24;;;;;;;4.70;3.95;;;;;;;;;;4709990;30;20060;-79
2022/04/28 11:07:54;;;;;;;4.10;3.70;;;;;;;;;;4708815;30;20057;-78
2022/04/28 11:10:22;;;;;;;4.47;4.10;;;;;;;;;;4710072;30;20053;-78
2022/04/28 11:12:51;;;;;;;4.18;3.78;;;;;;;;;;4710745;30;20061;-81
2022/04/28 11:15:20;;;;;;;3.67;2.88;;;;;;;;;;4709857;30;20060;-79
2022/04/28 11:17:48;;;;;;;4.10;3.10;;;;;;;;;;4709722;30;20572;-80
2022/04/28 11:20:19;;;;;;;6.32;2.72;;;;;;;;;;4710294;30;20412;-82
2022/04/28 11:22:52;;;;;;;5.00;2.15;;;;;;;;;;4677508;30;20052;-82
2022/04/28 11:25:22;;;;;;;3.25;2.95;;;;;;;;;;4700714;30;20524;-81
2022/04/28 11:27:52;;;;;;;4.57;3.55;;;;;;;;;;4702087;30;20385;-82
2022/04/28 11:30:22;;;;;;;3.20;2.92;;;;;;;;;;4697101;30;20060;-84
2022/04/28 11:32:57;;;;;;;3.97;3.65;;;;;;;;;;4712665;30;20073;-86
2022/04/28 11:35:30;;;;;;;3.92;2.70;;;;;;;;;;4705484;30;20767;-80
2022/04/28 11:37:59;;;;;;;3.80;3.15;;;;;;;;;;4694868;30;20091;-81
2022/04/28 11:40:28;;;;;;;5.75;4.50;;;;;;;;;;4697081;30;20820;-78
2022/04/28 11:42:57;;;;;;;5.78;4.47;;;;;;;;;;4686782;30;20057;-80
2022/04/28 11:45:26;;;;;;;4.22;3.92;;;;;;;;;;4709892;30;20061;-81
2022/04/28 11:47:56;;;;;;;3.35;3.05;;;;;;;;;;4720530;30;20589;-81
2022/04/28 11:50:26;;;;;;;4.57;3.95;;;;;;;;;;4729729;30;20049;-83
2022/04/28 11:53:01;;;;;;;4.93;4.43;;;;;;;;;;4725236;30;20057;-81
2022/04/28 11:55:38;;;;;;;4.47;3.70;;;;;;;;;;4728438;30;20052;-81
2022/04/28 11:58:07;;;;;;;3.38;3.03;;;;;;;;;;4719157;30;20053;-79
2022/04/28 12:00:37;;;;;;;4.10;3.67;;;;;;;;;;4712090;30;20064;-80
2022/04/28 12:03:05;;;;;;;4.03;3.58;;;;;;;;;;4723253;30;20052;-79
2022/04/28 12:05:34;;;;;;;3.88;3.10;;;;;;;;;;4727579;30;20064;-83
2022/04/28 12:08:03;;;;;;;7.72;4.25;;;;;;;;;;4728279;30;20068;-85
2022/04/28 12:16:23;;;;;;;6.97;4.63;;;;;;;;;;4722490;30;20049;-84
2022/04/28 12:21:42;;;;;;;8.77;3.45;;;;;;;;;;4720514;30;20198;-82
2022/04/28 12:24:11;;;;;;;3.78;3.33;;;;;;;;;;4713660;30;20049;-78
2022/04/28 12:26:43;;;;;;;3.92;3.63;;;;;;;;;;4717250;30;20053;-85
2022/04/28 12:29:12;;;;;;;3.47;3.10;;;;;;;;;;4712637;30;20060;-87
2022/04/28 12:31:41;;;;;;;6.03;4.15;;;;;;;;;;4727457;30;20053;-81
2022/04/28 12:34:16;;;;;;;5.45;4.10;;;;;;;;;;4713194;30;20052;-78
2022/04/28 12:36:46;;;;;;;6.43;4.38;;;;;;;;;;4708588;30;20059;-79
2022/04/28 12:39:14;;;;;;;4.55;3.95;;;;;;;;;;4713680;30;20060;-83
2022/04/28 12:41:43;;;;;;;3.83;3.42;;;;;;;;;;4713953;30;20072;-77
2022/04/28 12:44:13;;;;;;;8.38;3.95;;;;;;;;;;4731074;30;20057;-78
2022/04/28 12:46:44;;;;;;;9.57;5.32;;;;;;;;;;4727796;30;20536;-77
2022/04/28 12:49:18;;;;;;;4.85;4.38;;;;;;;;;;4729655;30;20071;-83
2022/04/28 12:51:47;;;;;;;5.45;4.47;;;;;;;;;;4712993;30;20073;-84
2022/04/28 12:54:25;;;;;;;4.40;3.95;;;;;;;;;;4713351;30;20052;-84
2022/04/28 12:56:57;;;;;;;9.88;5.25;;;;;;;;;;4699679;30;20415;-84
2022/04/28 12:59:36;;;;;;;7.53;5.30;;;;;;;;;;4686486;30;20064;-84
2022/04/28 13:02:05;;;;;;;3.95;3.65;;;;;;;;;;4708882;30;20049;-83
2022/04/28 13:04:41;;;;;;;5.18;4.65;;;;;;;;;;4709371;30;20061;-85
2022/04/28 13:07:09;;;;;;;4.80;4.38;;;;;;;;;;4708607;30;20230;-81
2022/04/28 13:09:39;;;;;;;3.63;3.33;;;;;;;;;;4704118;30;20558;-84
2022/04/28 13:12:13;;;;;;;5.00;4.45;;;;;;;;;;4700336;30;20083;-84
2022/04/28 13:14:41;;;;;;;11.43;4.75;;;;;;;;;;4679272;30;20080;-83
2022/04/28 13:17:09;;;;;;;5.53;3.13;;;;;;;;;;4680407;30;20064;-85
2022/04/28 13:19:38;;;;;;;9.15;3.97;;;;;;;;;;4708656;30;20406;-83
2022/04/28 13:22:08;;;;;;;6.38;3.90;;;;;;;;;;4693882;30;20053;-84
2022/04/28 13:24:36;;;;;;;7.32;3.92;;;;;;;;;;4709011;30;20061;-84
2022/04/28 13:27:04;;;;;;;4.13;3.72;;;;;;;;;;4694036;30;20090;-85
2022/04/28 13:29:35;;;;;;;5.07;4.35;;;;;;;;;;4707964;30;20180;-84
2022/04/28 13:32:09;;;;;;;5.03;4.43;;;;;;;;;;4728688;30;20060;-85
2022/04/28 13:34:38;;;;;;;4.47;3.35;;;;;;;;;;4727350;30;20060;-84
2022/04/28 13:37:08;;;;;;;6.85;4.15;;;;;;;;;;4709487;30;20534;-85
2022/04/28 13:39:37;;;;;;;3.00;2.55;;;;;;;;;;4729728;30;20071;-86
2022/04/28 13:42:07;;;;;;;3.77;3.30;;;;;;;;;;4745214;30;20048;-85
2022/04/28 13:44:35;;;;;;;3.33;3.03;;;;;;;;;;4727980;30;20063;-84
2022/04/28 13:47:04;;;;;;;6.15;4.63;;;;;;;;;;4726966;30;20398;-85
2022/04/28 13:49:36;;;;;;;7.10;3.72;;;;;;;;;;4697860;30;20060;-85
2022/04/28 13:52:04;;;;;;;5.40;3.75;;;;;;;;;;4712185;30;20811;-85
2022/04/28 13:54:32;;;;;;;7.18;3.40;;;;;;;;;;4703656;30;20052;-84
2022/04/28 13:57:01;;;;;;;4.60;3.55;;;;;;;;;;4698482;30;20099;-86
2022/04/28 13:59:32;;;;;;;4.65;4.25;;;;;;;;;;4728164;30;20052;-83
2022/04/28 14:02:00;;;;;;;5.07;4.65;;;;;;;;;;4698299;30;20463;-84
2022/04/28 14:04:28;;;;;;;3.90;3.60;;;;;;;;;;4699437;30;20561;-83
2022/04/28 14:06:59;;;;;;;5.28;3.67;;;;;;;;;;4727308;30;20065;-84
2022/04/28 14:09:27;;;;;;;4.00;3.60;;;;;;;;;;4727078;30;20399;-84
2022/04/28 14:11:57;;;;;;;10.05;3.85;;;;;;;;;;4712947;30;20490;-84
2022/04/28 14:14:25;;;;;;;9.60;5.80;;;;;;;;;;4713008;30;20045;-85
2022/04/28 14:16:53;;;;;;;4.45;4.05;;;;;;;;;;4727552;30;20079;-84
2022/04/28 14:19:21;;;;;;;2.88;2.65;;;;;;;;;;4711356;30;20060;-84
2022/04/28 14:21:49;;;;;;;4.35;3.95;;;;;;;;;;4727751;30;20049;-85
2022/04/28 14:24:17;;;;;;;4.05;3.55;;;;;;;;;;4727328;30;20055;-84
2022/04/28 14:26:46;;;;;;;4.40;3.25;;;;;;;;;;4728036;30;20064;-84
2022/04/28 14:29:19;;;;;;;3.55;3.25;;;;;;;;;;4728063;30;20068;-86
2022/04/28 14:31:49;;;;;;;3.63;2.42;;;;;;;;;;4722554;30;20056;-85
2022/04/28 14:34:21;;;;;;;5.03;3.78;;;;;;;;;;4716183;30;20053;-84
2022/04/28 14:36:51;;;;;;;6.18;4.60;;;;;;;;;;4702521;30;20423;-84
2022/04/28 14:39:19;;;;;;;4.75;3.70;;;;;;;;;;4728132;30;20053;-85
2022/04/28 14:41:47;;;;;;;3.00;2.70;;;;;;;;;;4728256;30;20064;-85
2022/04/28 14:44:37;;;;;;;7.22;3.33;;;;;;;;;;4728390;30;20411;-85
2022/04/28 14:47:06;;;;;;;3.58;3.17;;;;;;;;;;4711467;30;20068;-85
2022/04/28 14:52:26;;;;;;;4.55;4.10;;;;;;;;;;4727882;30;20558;-86
2022/04/28 14:54:56;;;;;;;4.50;2.85;;;;;;;;;;4726847;30;20562;-84
2022/04/28 14:57:37;;;;;;;7.28;3.72;;;;;;;;;;4726554;30;20059;-86
2022/04/28 15:00:06;;;;;;;3.65;2.78;;;;;;;;;;4728475;30;20052;-85
2022/04/28 15:02:35;;;;;;;4.13;3.50;;;;;;;;;;4705582;30;20066;-85
2022/04/28 15:05:03;;;;;;;4.28;3.88;;;;;;;;;;4715261;30;20067;-85
2022/04/28 15:07:36;;;;;;;5.88;3.53;;;;;;;;;;4714675;30;20064;-86
2022/04/28 15:10:06;;;;;;;3.08;2.88;;;;;;;;;;4713840;30;20049;-83
2022/04/28 15:12:38;;;;;;;3.25;3.03;;;;;;;;;;4713362;30;20064;-80
2022/04/28 15:15:14;;;;;;;4.28;3.28;;;;;;;;;;4715544;30;20056;-81
2022/04/28 15:17:44;;;;;;;2.50;2.30;;;;;;;;;;4734167;30;20056;-81
2022/04/28 15:20:13;;;;;;;3.03;2.83;;;;;;;;;;4736687;30;20586;-81
2022/04/28 15:22:42;;;;;;;2.33;2.13;;;;;;;;;;4733593;30;20053;-81
2022/04/28 15:25:11;;;;;;;8.25;4.15;;;;;;;;;;4735203;30;20053;-80
2022/04/28 15:27:40;;;;;;;3.97;3.58;;;;;;;;;;4719043;30;20052;-80
2022/04/28 15:30:09;;;;;;;3.75;3.42;;;;;;;;;;4716498;30;20059;-81
2022/04/28 15:32:52;;;;;;;3.53;2.83;;;;;;;;;;4716903;30;20061;-82
2022/04/28 15:35:20;;;;;;;2.75;2.58;;;;;;;;;;4717289;30;20045;-82
2022/04/28 15:37:55;;;;;;;4.47;3.75;;;;;;;;;;4733437;30;20059;-82
2022/04/28 15:40:31;;;;;;;3.45;3.17;;;;;;;;;;4719220;30;20056;-80
2022/04/28 15:43:01;;;;;;;6.65;3.80;;;;;;;;;;4733145;30;20556;-83
2022/04/28 15:45:29;;;;;;;4.60;2.80;;;;;;;;;;4733132;30;20052;-81
2022/04/28 15:47:57;;;;;;;4.35;3.50;;;;;;;;;;4734602;30;20064;-81
2022/04/28 15:50:27;;;;;;;3.40;3.10;;;;;;;;;;4733048;30;20048;-82
2022/04/28 15:52:55;;;;;;;3.47;3.17;;;;;;;;;;4695579;30;20053;-83
2022/04/28 15:55:24;;;;;;;7.30;3.25;;;;;;;;;;4686162;30;20057;-82
2022/04/28 15:57:54;;;;;;;14.27;4.57;;;;;;;;;;4674325;30;20492;-82
2022/04/28 16:00:22;;;;;;;4.65;3.83;;;;;;;;;;4698553;30;20068;-83
2022/04/28 16:02:50;;;;;;;3.25;2.65;;;;;;;;;;4692066;30;20057;-80
2022/04/28 16:05:19;;;;;;;2.92;2.65;;;;;;;;;;4713339;30;20053;-83
2022/04/28 16:07:47;;;;;;;3.63;3.33;;;;;;;;;;4701380;30;20045;-83
2022/04/28 16:10:15;;;;;;;3.58;3.28;;;;;;;;;;4707410;30;20083;-83
2022/04/28 16:12:45;;;;;;;4.83;4.43;;;;;;;;;;4711999;30;20057;-82
2022/04/28 16:15:16;;;;;;;3.22;2.92;;;;;;;;;;4706450;30;20323;-88
2022/04/28 16:17:44;;;;;;;4.55;3.97;;;;;;;;;;4689845;30;20061;-87
2022/04/28 16:20:12;;;;;;;3.58;3.28;;;;;;;;;;4713179;30;20061;-84
2022/04/28 16:22:40;;;;;;;3.85;3.50;;;;;;;;;;4695779;30;20712;-83
2022/04/28 16:25:10;;;;;;;6.20;4.07;;;;;;;;;;4695742;30;20061;-88
2022/04/28 16:47:01;;;;;;;4.43;3.15;;;;;;;;;;5078568;27;20479;-86
2022/04/28 16:49:29;;;;;;;2.60;2.40;;;;;;;;;;5061185;28;20048;-87
2022/04/28 16:52:01;;;;;;;4.47;3.67;;;;;;;;;;5045068;28;20086;-91
2022/04/28 16:54:29;;;;;;;3.50;2.75;;;;;;;;;;5045116;28;20064;-87
2022/04/28 16:56:59;;;;;;;11.70;3.40;;;;;;;;;;5042610;28;20403;-87
2022/04/28 16:59:27;;;;;;;2.25;2.05;;;;;;;;;;5034469;28;20103;-87
2022/04/28 17:02:27;;;;;;;4.05;3.58;;;;;;;;;;5061958;28;20045;-87
2022/04/28 17:04:56;;;;;;;3.42;3.10;;;;;;;;;;5052350;28;20052;-86
2022/04/28 17:07:24;;;;;;;3.60;3.30;;;;;;;;;;5044565;28;20048;-86
2022/04/28 17:09:52;;;;;;;4.35;3.95;;;;;;;;;;5041698;28;20388;-86
2022/04/28 17:12:20;;;;;;;2.90;2.70;;;;;;;;;;5039398;28;20061;-87
2022/04/28 17:14:48;;;;;;;3.53;3.22;;;;;;;;;;5010084;28;20058;-85
2022/04/28 17:17:17;;;;;;;3.38;3.08;;;;;;;;;;5024794;28;20503;-86
2022/04/28 17:19:45;;;;;;;4.18;3.00;;;;;;;;;;5027074;28;20055;-83
2022/04/28 17:22:16;;;;;;;2.45;2.25;;;;;;;;;;5059988;28;20056;-84
2022/04/28 17:24:44;;;;;;;2.55;2.20;;;;;;;;;;5044211;28;20049;-81
2022/04/28 17:27:12;;;;;;;3.45;2.95;;;;;;;;;;5042194;28;20068;-81
2022/04/28 17:29:41;;;;;;;6.43;3.85;;;;;;;;;;5024473;28;20064;-84
2022/04/28 17:32:12;;;;;;;4.32;3.03;;;;;;;;;;5056523;28;20056;-83
2022/04/28 17:34:42;;;;;;;;;;;;;;;;;;5057809;28;20045;-81
2022/04/28 17:37:11;;;;;;;3.03;2.50;;;;;;;;;;5062051;28;19932;-83
2022/04/28 17:39:44;;;;;;;2.65;2.35;;;;;;;;;;5064170;28;20045;-83
2022/04/28 17:42:13;;;;;;;2.53;2.28;;;;;;;;;;5066303;28;20048;-81
2022/04/28 17:44:43;;;;;;;2.40;2.25;;;;;;;;;;5065727;28;20052;-83
2022/04/28 17:47:16;;;;;;;4.25;2.60;;;;;;;;;;5051034;28;20048;-81
2022/04/28 17:49:44;;;;;;;2.92;2.63;;;;;;;;;;5023013;28;24602;-81
2022/04/28 17:52:12;;;;;;;5.80;3.72;;;;;;;;;;5030509;28;20051;-83
2022/04/28 17:54:41;;;;;;;2.95;2.35;;;;;;;;;;5013835;28;20056;-82
2022/04/28 17:59:56;;;;;;;4.20;3.20;;;;;;;;;;5052801;28;20045;-85
2022/04/28 18:02:25;;;;;;;3.28;2.80;;;;;;;;;;5058165;28;20047;-85
2022/04/28 18:04:55;;;;;;;2.30;2.13;;;;;;;;;;5055699;28;20045;-84
2022/04/28 18:07:23;;;;;;;2.58;2.17;;;;;;;;;;5067620;28;20040;-84
2022/04/28 18:09:53;;;;;;;3.70;2.95;;;;;;;;;;5066806;28;20487;-84
2022/04/28 18:12:24;;;;;;;3.00;2.63;;;;;;;;;;5035074;28;20060;-84
2022/04/28 18:14:53;;;;;;;4.95;3.33;;;;;;;;;;5058823;28;20049;-84
2022/04/28 18:17:22;;;;;;;2.85;2.35;;;;;;;;;;5047389;28;20127;-85
2022/04/28 18:19:50;;;;;;;3.42;3.22;;;;;;;;;;5047938;28;20048;-84
2022/04/28 18:22:18;;;;;;;3.85;3.42;;;;;;;;;;5040559;28;20044;-85
2022/04/28 18:24:47;;;;;;;2.60;2.40;;;;;;;;;;5028918;28;20056;-82
2022/04/28 18:27:20;;;;;;;2.88;2.67;;;;;;;;;;5010302;28;20052;-83